Air Sicilia Virtual Airways - Rotta

Air Sicilia Virtual Airways - SIC020A

( IT ) LIMZ - 00:00
Cuneo International Airport
CUNEO ( CUF )
plane_to ( IT ) LIRQ - 00:00
Peretola Airport
FIRENZE ( FLR )

AIRPORT NEAR NAVIGATION AIDS

Tipo Nome Frequenza
NDB Levaldigi 371 KHZ

METAR / TAF
LIMZ 250350Z AUTO 36005KT 320V020 0050 R21/0250N -FZDZ VV001 M03/M03 Q1034
LIMZ 242300Z 2500/2524 VRB05KT 3000 BR NSC BECMG 2501/2502 0500 FZFG BKN004 TEMPO 2500/2506 0100 OVC001 BECMG 2510/2512 2000 BR SCT010 TEMPO 2512/2518 6000

INFORMAZIONI PISTE

Pista Lunghezza pista Larghezza pista Elevazione pista Runway displaced threshold Prua pista
03 6903 148 1267 0 32
21 6903 148 1217 0 212

FREQUENZE AEROPORTO

Tipo Nome Frequenza
AFIS CUNEO INFO 119.55 MHZ

AIRPORT NEAR NAVIGATION AIDS

Tipo Nome Frequenza
VOR-DME Peretola 112500 KHZ

METAR / TAF
LIRQ 250350Z AUTO VRB02KT 9999 NCD 00/M01 Q1033
LIRQ 242300Z 2500/2524 VRB05KT 9999 FEW030 TEMPO 2500/2507 3000 BR

INFORMAZIONI PISTE

Pista Lunghezza pista Larghezza pista Elevazione pista Runway displaced threshold Prua pista
05 5425 98 123 492 48
23 5425 98 132 2287 228

FREQUENZE AEROPORTO

Tipo Nome Frequenza
APP APP 126.075 MHZ
ATIS ATIS 129.35 MHZ
TWR FIRENZE TW 118.3 MHZ

Piano di volo

VFR

Air Sicilia Virtual Airways Aerei

Aerei disponibili per la rotta in questo momento a Cuneo International Airport

At this time no aircraft Air Sicilia Virtual Airways is available at Cuneo International Airport
Only Charter flights.

160.62 NM

Distanza in Miglia Nautiche.

€ 250,00

Costo del biglietto per questo volo.

0 h.

Tempo di volo stimato.




12-11-2018
Aerosoft Airport Rio de Janeiro International V2.0 XP

L'Aeroporto Internazionale di Rio de Janeiro-Galeão (IATA: GIG, ICAO: SBGL), costruito nel 1952 nel quartiere di Ilha do Governador ed intitolato al musicista Antônio Carlos Jobim, è il principale aeroporto internazio ....


15-10-2018
Aerosoft A320 Family professional

La gamma di aeromobili A320 è una delle più comuni nei cieli. Questi aerei di linea a doppio-getto a corto e medio raggio si sono dimostrati convenienti, affidabili e prontamente disponibili, rendendoli le opzioni migl ....


10-10-2018
Motore critico ( Critical Engine )

Il motore critico di un velivolo ad ala fissa multi-motore è il motore che, in caso di guasto, influirebbe negativamente sulle prestazioni o sulla capacità di manovra di un aereo. Sui velivoli ad elica, vi è un ....


04-10-2018
Aerosoft Dortmund XP

Scopri il centro della regione della Ruhr su XPlane 11 - lo scenario Dortmund XP è una ricostruzione completa della città di Dortmund per il simulatore di volo targato Laminar. Oltre all'intera area urbana di Dortmu ....


07-08-2018
Aerosoft Professional Flight Planner PFPX

PFPX - Professional Flight Planner X - è un nuovo ed innovativo strumento di pianificazione del volo sviluppato da piloti e dispatcher del mondo reale. È un'aggiunta preziosa e realistica alla tua esperienza di simulaz ....